sensor_id;sensor_type;location;lat;lon;timestamp;pressure;altitude;pressure_sealevel;temperature;humidity
68889;BME280;55930;47.412;8.790;2022-12-18T00:03:03;95366.66;;;-3.71;100.00
68889;BME280;55930;47.412;8.790;2022-12-18T00:06:25;95375.66;;;-3.88;100.00
68889;BME280;55930;47.412;8.790;2022-12-18T00:09:46;95388.78;;;-3.77;100.00
68889;BME280;55930;47.412;8.790;2022-12-18T00:13:06;95389.34;;;-3.87;100.00
68889;BME280;55930;47.412;8.790;2022-12-18T00:16:30;95394.19;;;-3.86;100.00
68889;BME280;55930;47.412;8.790;2022-12-18T00:19:52;95390.34;;;-3.72;100.00
68889;BME280;55930;47.412;8.790;2022-12-18T00:23:15;95392.66;;;-3.67;100.00
68889;BME280;55930;47.412;8.790;2022-12-18T00:26:39;95396.03;;;-3.63;100.00
68889;BME280;55930;47.412;8.790;2022-12-18T00:29:59;95403.28;;;-3.72;100.00
68889;BME280;55930;47.412;8.790;2022-12-18T00:33:20;95411.06;;;-3.72;100.00
68889;BME280;55930;47.412;8.790;2022-12-18T00:36:41;95407.03;;;-3.70;100.00
68889;BME280;55930;47.412;8.790;2022-12-18T00:40:02;95407.03;;;-3.70;100.00
68889;BME280;55930;47.412;8.790;2022-12-18T00:43:23;95408.34;;;-3.79;100.00
68889;BME280;55930;47.412;8.790;2022-12-18T00:46:45;95414.59;;;-3.84;100.00
68889;BME280;55930;47.412;8.790;2022-12-18T00:50:06;95401.97;;;-3.86;100.00
68889;BME280;55930;47.412;8.790;2022-12-18T00:53:27;95402.84;;;-3.78;100.00
68889;BME280;55930;47.412;8.790;2022-12-18T00:56:47;95396.59;;;-3.73;100.00
68889;BME280;55930;47.412;8.790;2022-12-18T01:00:11;95389.06;;;-3.82;100.00
68889;BME280;55930;47.412;8.790;2022-12-18T01:03:32;95397.81;;;-3.90;100.00
68889;BME280;55930;47.412;8.790;2022-12-18T01:06:53;95401.63;;;-3.84;100.00
68889;BME280;55930;47.412;8.790;2022-12-18T01:10:13;95414.38;;;-3.75;100.00
68889;BME280;55930;47.412;8.790;2022-12-18T01:13:34;95425.53;;;-3.71;100.00
68889;BME280;55930;47.412;8.790;2022-12-18T01:16:55;95419.19;;;-3.74;100.00
68889;BME280;55930;47.412;8.790;2022-12-18T01:20:15;95416.78;;;-3.63;100.00
68889;BME280;55930;47.412;8.790;2022-12-18T01:23:41;95416.09;;;-3.60;100.00
68889;BME280;55930;47.412;8.790;2022-12-18T01:27:05;95423.69;;;-3.71;100.00
68889;BME280;55930;47.412;8.790;2022-12-18T01:30:25;95420.41;;;-3.68;100.00
68889;BME280;55930;47.412;8.790;2022-12-18T01:33:46;95430.78;;;-3.68;100.00
68889;BME280;55930;47.412;8.790;2022-12-18T01:37:06;95441.59;;;-3.62;100.00
68889;BME280;55930;47.412;8.790;2022-12-18T01:40:29;95451.69;;;-3.57;100.00
68889;BME280;55930;47.412;8.790;2022-12-18T01:43:54;95443.56;;;-3.56;100.00
68889;BME280;55930;47.412;8.790;2022-12-18T01:50:57;95446.59;;;-3.73;100.00
68889;BME280;55930;47.412;8.790;2022-12-18T01:54:18;95447.97;;;-3.60;100.00
68889;BME280;55930;47.412;8.790;2022-12-18T01:57:41;95456.13;;;-3.58;100.00
68889;BME280;55930;47.412;8.790;2022-12-18T02:01:01;95451.56;;;-3.64;100.00
68889;BME280;55930;47.412;8.790;2022-12-18T02:04:25;95446.25;;;-3.71;100.00
68889;BME280;55930;47.412;8.790;2022-12-18T02:18:11;95449.56;;;-3.52;100.00
68889;BME280;55930;47.412;8.790;2022-12-18T02:21:42;95455.47;;;-3.51;100.00
68889;BME280;55930;47.412;8.790;2022-12-18T02:28:51;95449.78;;;-3.60;100.00
68889;BME280;55930;47.412;8.790;2022-12-18T02:32:22;95442.47;;;-3.55;100.00
68889;BME280;55930;47.412;8.790;2022-12-18T02:35:44;95457.09;;;-3.66;100.00
68889;BME280;55930;47.412;8.790;2022-12-18T02:39:06;95458.31;;;-3.60;100.00
68889;BME280;55930;47.412;8.790;2022-12-18T02:42:28;95452.72;;;-3.62;100.00
68889;BME280;55930;47.412;8.790;2022-12-18T02:45:55;95451.31;;;-3.59;100.00
68889;BME280;55930;47.412;8.790;2022-12-18T02:49:40;95441.94;;;-3.64;100.00
68889;BME280;55930;47.412;8.790;2022-12-18T02:56:36;95453.47;;;-3.84;100.00
68889;BME280;55930;47.412;8.790;2022-12-18T03:00:37;95454.88;;;-3.67;100.00
68889;BME280;55930;47.412;8.790;2022-12-18T03:04:08;95458.31;;;-3.60;100.00
68889;BME280;55930;47.412;8.790;2022-12-18T03:07:40;95470.03;;;-3.47;100.00
68889;BME280;55930;47.412;8.790;2022-12-18T03:11:10;95467.84;;;-3.44;100.00
68889;BME280;55930;47.412;8.790;2022-12-18T03:14:35;95467.59;;;-3.36;100.00
68889;BME280;55930;47.412;8.790;2022-12-18T03:18:02;95456.66;;;-3.49;100.00
68889;BME280;55930;47.412;8.790;2022-12-18T03:21:32;95465.63;;;-3.42;100.00
68889;BME280;55930;47.412;8.790;2022-12-18T03:24:56;95470.81;;;-3.42;100.00
68889;BME280;55930;47.412;8.790;2022-12-18T03:28:21;95464.88;;;-3.66;100.00
68889;BME280;55930;47.412;8.790;2022-12-18T03:31:48;95473.16;;;-3.57;100.00
68889;BME280;55930;47.412;8.790;2022-12-18T03:35:11;95477.81;;;-3.66;100.00
68889;BME280;55930;47.412;8.790;2022-12-18T03:38:33;95477.06;;;-3.66;100.00
68889;BME280;55930;47.412;8.790;2022-12-18T03:45:38;95479.63;;;-3.70;100.00
68889;BME280;55930;47.412;8.790;2022-12-18T03:49:10;95486.47;;;-3.58;100.00
68889;BME280;55930;47.412;8.790;2022-12-18T03:56:06;95493.78;;;-3.64;100.00
68889;BME280;55930;47.412;8.790;2022-12-18T03:59:28;95502.78;;;-3.58;100.00
68889;BME280;55930;47.412;8.790;2022-12-18T04:02:55;95498.47;;;-3.50;100.00
68889;BME280;55930;47.412;8.790;2022-12-18T04:06:17;95497.59;;;-3.58;100.00
68889;BME280;55930;47.412;8.790;2022-12-18T04:09:38;95500.16;;;-3.61;100.00
68889;BME280;55930;47.412;8.790;2022-12-18T04:13:00;95507.38;;;-3.70;100.00
68889;BME280;55930;47.412;8.790;2022-12-18T04:16:20;95506.91;;;-3.76;100.00
68889;BME280;55930;47.412;8.790;2022-12-18T04:19:43;95501.88;;;-3.69;100.00
68889;BME280;55930;47.412;8.790;2022-12-18T04:23:03;95506.09;;;-3.80;100.00
68889;BME280;55930;47.412;8.790;2022-12-18T04:26:24;95509.59;;;-3.92;100.00
68889;BME280;55930;47.412;8.790;2022-12-18T04:29:44;95517.34;;;-3.72;100.00
68889;BME280;55930;47.412;8.790;2022-12-18T04:33:12;95515.09;;;-3.74;100.00
68889;BME280;55930;47.412;8.790;2022-12-18T04:36:35;95516.03;;;-3.63;100.00
68889;BME280;55930;47.412;8.790;2022-12-18T04:39:58;95527.56;;;-3.60;100.00
68889;BME280;55930;47.412;8.790;2022-12-18T04:43:19;95530.75;;;-3.67;100.00
68889;BME280;55930;47.412;8.790;2022-12-18T04:46:40;95531.88;;;-3.87;100.00
68889;BME280;55930;47.412;8.790;2022-12-18T04:50:00;95533.34;;;-3.67;100.00
68889;BME280;55930;47.412;8.790;2022-12-18T04:53:20;95543.22;;;-3.76;100.00
68889;BME280;55930;47.412;8.790;2022-12-18T04:56:43;95537.53;;;-3.81;100.00
68889;BME280;55930;47.412;8.790;2022-12-18T05:00:04;95537.06;;;-3.68;100.00
68889;BME280;55930;47.412;8.790;2022-12-18T05:03:26;95528.16;;;-3.67;100.00
68889;BME280;55930;47.412;8.790;2022-12-18T05:06:46;95531.38;;;-3.73;100.00
68889;BME280;55930;47.412;8.790;2022-12-18T05:10:09;95532.97;;;-3.69;100.00
68889;BME280;55930;47.412;8.790;2022-12-18T05:13:30;95518.50;;;-3.70;100.00
68889;BME280;55930;47.412;8.790;2022-12-18T05:16:51;95517.06;;;-3.67;100.00
68889;BME280;55930;47.412;8.790;2022-12-18T05:20:11;95519.66;;;-3.67;100.00
68889;BME280;55930;47.412;8.790;2022-12-18T05:23:32;95513.66;;;-3.71;100.00
68889;BME280;55930;47.412;8.790;2022-12-18T05:26:55;95529.75;;;-3.62;100.00
68889;BME280;55930;47.412;8.790;2022-12-18T05:30:17;95526.00;;;-3.65;100.00
68889;BME280;55930;47.412;8.790;2022-12-18T05:33:40;95531.66;;;-3.59;100.00
68889;BME280;55930;47.412;8.790;2022-12-18T05:37:17;95537.19;;;-3.61;100.00
68889;BME280;55930;47.412;8.790;2022-12-18T05:40:41;95546.81;;;-3.61;100.00
68889;BME280;55930;47.412;8.790;2022-12-18T05:44:02;95549.66;;;-3.66;100.00
68889;BME280;55930;47.412;8.790;2022-12-18T05:47:23;95555.38;;;-3.57;100.00
68889;BME280;55930;47.412;8.790;2022-12-18T05:50:45;95551.66;;;-3.60;100.00
68889;BME280;55930;47.412;8.790;2022-12-18T05:54:06;95551.59;;;-3.63;100.00
68889;BME280;55930;47.412;8.790;2022-12-18T05:57:26;95545.94;;;-3.69;100.00
68889;BME280;55930;47.412;8.790;2022-12-18T06:00:47;95554.63;;;-3.58;100.00
68889;BME280;55930;47.412;8.790;2022-12-18T06:04:07;95539.28;;;-3.66;100.00
68889;BME280;55930;47.412;8.790;2022-12-18T06:07:27;95540.72;;;-3.50;100.00
68889;BME280;55930;47.412;8.790;2022-12-18T06:10:51;95539.91;;;-3.54;100.00
68889;BME280;55930;47.412;8.790;2022-12-18T06:14:12;95548.38;;;-3.57;100.00
68889;BME280;55930;47.412;8.790;2022-12-18T06:17:33;95559.03;;;-3.62;100.00
68889;BME280;55930;47.412;8.790;2022-12-18T06:20:58;95562.63;;;-3.66;100.00
68889;BME280;55930;47.412;8.790;2022-12-18T06:24:18;95554.84;;;-3.47;100.00
68889;BME280;55930;47.412;8.790;2022-12-18T06:27:39;95564.88;;;-3.45;100.00
68889;BME280;55930;47.412;8.790;2022-12-18T06:30:59;95565.75;;;-3.38;100.00
68889;BME280;55930;47.412;8.790;2022-12-18T06:34:20;95566.09;;;-3.59;100.00
68889;BME280;55930;47.412;8.790;2022-12-18T06:37:40;95575.13;;;-3.53;100.00
68889;BME280;55930;47.412;8.790;2022-12-18T06:41:07;95571.78;;;-3.53;100.00
68889;BME280;55930;47.412;8.790;2022-12-18T06:44:27;95565.44;;;-3.56;100.00
68889;BME280;55930;47.412;8.790;2022-12-18T06:47:48;95572.53;;;-3.53;100.00
68889;BME280;55930;47.412;8.790;2022-12-18T06:51:08;95568.78;;;-3.55;100.00
68889;BME280;55930;47.412;8.790;2022-12-18T06:54:29;95578.03;;;-3.35;100.00
68889;BME280;55930;47.412;8.790;2022-12-18T06:57:49;95582.81;;;-3.37;100.00
68889;BME280;55930;47.412;8.790;2022-12-18T07:01:11;95597.63;;;-3.37;100.00
68889;BME280;55930;47.412;8.790;2022-12-18T07:04:32;95603.81;;;-3.42;100.00
68889;BME280;55930;47.412;8.790;2022-12-18T07:07:52;95611.59;;;-3.42;100.00
68889;BME280;55930;47.412;8.790;2022-12-18T07:11:13;95615.72;;;-3.41;100.00
68889;BME280;55930;47.412;8.790;2022-12-18T07:14:33;95623.28;;;-3.32;100.00
68889;BME280;55930;47.412;8.790;2022-12-18T07:17:54;95626.97;;;-3.33;100.00
68889;BME280;55930;47.412;8.790;2022-12-18T07:21:19;95626.63;;;-3.32;100.00
68889;BME280;55930;47.412;8.790;2022-12-18T07:24:39;95638.28;;;-3.41;100.00
68889;BME280;55930;47.412;8.790;2022-12-18T07:28:00;95640.88;;;-3.41;100.00
68889;BME280;55930;47.412;8.790;2022-12-18T07:31:21;95649.09;;;-3.39;100.00
68889;BME280;55930;47.412;8.790;2022-12-18T07:34:42;95648.22;;;-3.28;100.00
68889;BME280;55930;47.412;8.790;2022-12-18T07:38:05;95649.22;;;-3.32;100.00
68889;BME280;55930;47.412;8.790;2022-12-18T07:41:26;95652.97;;;-3.30;100.00
68889;BME280;55930;47.412;8.790;2022-12-18T07:44:46;95648.13;;;-3.51;100.00
68889;BME280;55930;47.412;8.790;2022-12-18T07:48:06;95638.72;;;-3.39;100.00
68889;BME280;55930;47.412;8.790;2022-12-18T07:51:45;95648.03;;;-3.35;100.00
68889;BME280;55930;47.412;8.790;2022-12-18T07:55:09;95647.16;;;-3.23;100.00
68889;BME280;55930;47.412;8.790;2022-12-18T07:58:41;95646.53;;;-3.17;100.00
68889;BME280;55930;47.412;8.790;2022-12-18T08:02:02;95646.84;;;-3.22;100.00
68889;BME280;55930;47.412;8.790;2022-12-18T08:05:26;95647.78;;;-3.30;100.00
68889;BME280;55930;47.412;8.790;2022-12-18T08:08:46;95657.13;;;-3.25;100.00
68889;BME280;55930;47.412;8.790;2022-12-18T08:12:15;95655.69;;;-3.03;100.00
68889;BME280;55930;47.412;8.790;2022-12-18T08:15:40;95662.16;;;-2.94;100.00
68889;BME280;55930;47.412;8.790;2022-12-18T08:19:01;95664.00;;;-2.94;100.00
68889;BME280;55930;47.412;8.790;2022-12-18T08:22:22;95669.09;;;-2.79;100.00
68889;BME280;55930;47.412;8.790;2022-12-18T08:25:42;95671.19;;;-2.88;100.00
68889;BME280;55930;47.412;8.790;2022-12-18T08:29:05;95665.94;;;-2.68;100.00
68889;BME280;55930;47.412;8.790;2022-12-18T08:32:27;95671.84;;;-2.72;100.00
68889;BME280;55930;47.412;8.790;2022-12-18T08:35:48;95679.56;;;-2.75;100.00
68889;BME280;55930;47.412;8.790;2022-12-18T08:39:08;95684.97;;;-2.61;100.00
68889;BME280;55930;47.412;8.790;2022-12-18T08:42:54;95679.47;;;-2.79;100.00
68889;BME280;55930;47.412;8.790;2022-12-18T08:46:41;95672.63;;;-2.67;100.00
68889;BME280;55930;47.412;8.790;2022-12-18T08:50:02;95672.19;;;-2.50;100.00
68889;BME280;55930;47.412;8.790;2022-12-18T08:53:25;95679.63;;;-2.49;100.00
68889;BME280;55930;47.412;8.790;2022-12-18T08:57:06;95681.75;;;-2.54;100.00
68889;BME280;55930;47.412;8.790;2022-12-18T09:00:26;95683.53;;;-2.36;100.00
68889;BME280;55930;47.412;8.790;2022-12-18T09:03:48;95665.56;;;-2.21;100.00
68889;BME280;55930;47.412;8.790;2022-12-18T09:07:09;95662.75;;;-2.36;100.00
68889;BME280;55930;47.412;8.790;2022-12-18T09:10:29;95654.44;;;-2.45;100.00
68889;BME280;55930;47.412;8.790;2022-12-18T09:13:50;95654.03;;;-2.24;100.00
68889;BME280;55930;47.412;8.790;2022-12-18T09:17:10;95652.06;;;-2.08;100.00
68889;BME280;55930;47.412;8.790;2022-12-18T09:20:31;95650.84;;;-2.14;100.00
68889;BME280;55930;47.412;8.790;2022-12-18T09:23:54;95649.09;;;-2.06;100.00
68889;BME280;55930;47.412;8.790;2022-12-18T09:27:15;95651.44;;;-1.98;100.00
68889;BME280;55930;47.412;8.790;2022-12-18T09:30:42;95648.16;;;-1.95;100.00
68889;BME280;55930;47.412;8.790;2022-12-18T09:34:03;95651.53;;;-1.90;100.00
68889;BME280;55930;47.412;8.790;2022-12-18T09:37:24;95650.25;;;-2.04;100.00
68889;BME280;55930;47.412;8.790;2022-12-18T09:41:17;95656.50;;;-2.31;100.00
68889;BME280;55930;47.412;8.790;2022-12-18T09:44:49;95664.16;;;-1.92;100.00
68889;BME280;55930;47.412;8.790;2022-12-18T09:48:29;95654.19;;;-1.61;100.00
68889;BME280;55930;47.412;8.790;2022-12-18T09:51:56;95657.81;;;-1.92;100.00
68889;BME280;55930;47.412;8.790;2022-12-18T09:55:36;95654.84;;;-1.34;100.00
68889;BME280;55930;47.412;8.790;2022-12-18T09:58:59;95656.63;;;-1.71;100.00
68889;BME280;55930;47.412;8.790;2022-12-18T10:02:23;95663.53;;;-1.82;100.00
68889;BME280;55930;47.412;8.790;2022-12-18T10:06:13;95659.44;;;-1.83;100.00
68889;BME280;55930;47.412;8.790;2022-12-18T10:09:51;95656.28;;;-1.40;100.00
68889;BME280;55930;47.412;8.790;2022-12-18T10:13:19;95660.81;;;-1.63;100.00
68889;BME280;55930;47.412;8.790;2022-12-18T10:21:15;95664.34;;;-1.48;99.88
68889;BME280;55930;47.412;8.790;2022-12-18T10:25:48;95659.16;;;-1.78;100.00
68889;BME280;55930;47.412;8.790;2022-12-18T10:29:16;95658.31;;;-1.56;100.00
68889;BME280;55930;47.412;8.790;2022-12-18T10:32:42;95655.19;;;-1.35;100.00
68889;BME280;55930;47.412;8.790;2022-12-18T10:36:16;95655.50;;;-1.10;100.00
68889;BME280;55930;47.412;8.790;2022-12-18T10:39:36;95662.53;;;-1.14;100.00
68889;BME280;55930;47.412;8.790;2022-12-18T10:43:12;95681.91;;;-1.42;100.00
68889;BME280;55930;47.412;8.790;2022-12-18T10:46:32;95676.56;;;-1.23;99.36
68889;BME280;55930;47.412;8.790;2022-12-18T10:49:53;95674.75;;;-1.48;100.00
68889;BME280;55930;47.412;8.790;2022-12-18T10:53:20;95679.50;;;-1.24;100.00
68889;BME280;55930;47.412;8.790;2022-12-18T10:56:42;95679.91;;;-1.22;100.00
68889;BME280;55930;47.412;8.790;2022-12-18T11:03:58;95670.94;;;-1.28;100.00
68889;BME280;55930;47.412;8.790;2022-12-18T11:07:18;95675.69;;;-1.34;100.00
68889;BME280;55930;47.412;8.790;2022-12-18T11:10:39;95676.03;;;-1.35;100.00
68889;BME280;55930;47.412;8.790;2022-12-18T11:14:22;95676.59;;;-1.49;100.00
68889;BME280;55930;47.412;8.790;2022-12-18T11:17:47;95675.25;;;-1.69;100.00
68889;BME280;55930;47.412;8.790;2022-12-18T11:21:11;95664.91;;;-1.32;100.00
68889;BME280;55930;47.412;8.790;2022-12-18T11:24:35;95658.63;;;-0.98;100.00
68889;BME280;55930;47.412;8.790;2022-12-18T11:27:59;95652.16;;;-0.70;99.15
68889;BME280;55930;47.412;8.790;2022-12-18T11:31:25;95643.75;;;-0.97;99.40
68889;BME280;55930;47.412;8.790;2022-12-18T11:34:56;95642.94;;;-1.01;100.00
68889;BME280;55930;47.412;8.790;2022-12-18T11:38:27;95643.44;;;-1.56;100.00
68889;BME280;55930;47.412;8.790;2022-12-18T11:41:56;95633.94;;;-1.44;100.00
68889;BME280;55930;47.412;8.790;2022-12-18T11:45:31;95628.00;;;-1.41;100.00
68889;BME280;55930;47.412;8.790;2022-12-18T11:49:11;95621.28;;;-1.09;100.00
68889;BME280;55930;47.412;8.790;2022-12-18T11:52:38;95613.47;;;-1.46;100.00
68889;BME280;55930;47.412;8.790;2022-12-18T11:56:16;95605.06;;;-1.32;100.00
68889;BME280;55930;47.412;8.790;2022-12-18T12:04:07;95619.78;;;-1.43;100.00
68889;BME280;55930;47.412;8.790;2022-12-18T12:25:30;95627.16;;;-0.82;100.00
68889;BME280;55930;47.412;8.790;2022-12-18T12:29:03;95619.66;;;-0.40;98.20
68889;BME280;55930;47.412;8.790;2022-12-18T12:36:12;95608.31;;;-1.05;100.00
68889;BME280;55930;47.412;8.790;2022-12-18T12:39:40;95595.34;;;-1.39;100.00
68889;BME280;55930;47.412;8.790;2022-12-18T12:43:20;95591.38;;;-1.26;100.00
68889;BME280;55930;47.412;8.790;2022-12-18T12:46:43;95599.41;;;-1.04;100.00
68889;BME280;55930;47.412;8.790;2022-12-18T12:50:11;95593.56;;;-1.31;100.00
68889;BME280;55930;47.412;8.790;2022-12-18T12:53:35;95589.13;;;-0.90;100.00
68889;BME280;55930;47.412;8.790;2022-12-18T12:57:12;95582.28;;;-1.05;100.00
68889;BME280;55930;47.412;8.790;2022-12-18T13:00:46;95590.13;;;-1.39;100.00
68889;BME280;55930;47.412;8.790;2022-12-18T13:11:54;95585.75;;;-1.28;100.00
68889;BME280;55930;47.412;8.790;2022-12-18T13:19:22;95589.09;;;-1.64;100.00
68889;BME280;55930;47.412;8.790;2022-12-18T13:22:47;95587.53;;;-1.99;100.00
68889;BME280;55930;47.412;8.790;2022-12-18T13:29:44;95600.66;;;-1.62;100.00
68889;BME280;55930;47.412;8.790;2022-12-18T13:40:56;95595.41;;;-1.65;100.00
68889;BME280;55930;47.412;8.790;2022-12-18T13:44:34;95595.41;;;-1.65;100.00
68889;BME280;55930;47.412;8.790;2022-12-18T13:47:56;95586.56;;;-1.57;100.00
68889;BME280;55930;47.412;8.790;2022-12-18T13:51:17;95591.22;;;-1.40;100.00
68889;BME280;55930;47.412;8.790;2022-12-18T13:54:40;95589.72;;;-1.41;100.00
68889;BME280;55930;47.412;8.790;2022-12-18T13:58:05;95598.59;;;-1.45;100.00
68889;BME280;55930;47.412;8.790;2022-12-18T14:01:26;95596.00;;;-1.75;100.00
68889;BME280;55930;47.412;8.790;2022-12-18T14:04:48;95594.91;;;-1.44;100.00
68889;BME280;55930;47.412;8.790;2022-12-18T14:08:10;95597.41;;;-1.51;100.00
68889;BME280;55930;47.412;8.790;2022-12-18T14:11:32;95608.94;;;-1.82;100.00
68889;BME280;55930;47.412;8.790;2022-12-18T14:14:52;95602.69;;;-2.31;100.00
68889;BME280;55930;47.412;8.790;2022-12-18T14:21:47;95609.88;;;-2.24;100.00
68889;BME280;55930;47.412;8.790;2022-12-18T14:25:17;95606.59;;;-1.61;100.00
68889;BME280;55930;47.412;8.790;2022-12-18T14:28:43;95615.03;;;-1.71;100.00
68889;BME280;55930;47.412;8.790;2022-12-18T14:35:36;95609.09;;;-1.98;100.00
68889;BME280;55930;47.412;8.790;2022-12-18T14:38:58;95605.41;;;-1.97;100.00
68889;BME280;55930;47.412;8.790;2022-12-18T14:42:19;95609.91;;;-1.94;100.00
68889;BME280;55930;47.412;8.790;2022-12-18T14:45:42;95607.22;;;-2.01;100.00
68889;BME280;55930;47.412;8.790;2022-12-18T14:49:29;95604.53;;;-2.08;100.00
68889;BME280;55930;47.412;8.790;2022-12-18T14:52:52;95607.16;;;-2.05;100.00
68889;BME280;55930;47.412;8.790;2022-12-18T14:59:44;95598.59;;;-2.05;100.00
68889;BME280;55930;47.412;8.790;2022-12-18T15:03:08;95597.31;;;-2.18;100.00
68889;BME280;55930;47.412;8.790;2022-12-18T15:06:35;95606.81;;;-2.29;100.00
68889;BME280;55930;47.412;8.790;2022-12-18T15:13:35;95598.22;;;-2.34;100.00
68889;BME280;55930;47.412;8.790;2022-12-18T15:16:58;95598.47;;;-2.16;100.00
68889;BME280;55930;47.412;8.790;2022-12-18T15:20:25;95585.47;;;-2.42;100.00
68889;BME280;55930;47.412;8.790;2022-12-18T15:24:04;95594.06;;;-2.38;100.00
68889;BME280;55930;47.412;8.790;2022-12-18T15:28:03;95591.34;;;-2.45;100.00
68889;BME280;55930;47.412;8.790;2022-12-18T15:31:30;95596.16;;;-2.47;100.00
68889;BME280;55930;47.412;8.790;2022-12-18T15:35:23;95601.31;;;-2.51;100.00
68889;BME280;55930;47.412;8.790;2022-12-18T15:38:49;95599.25;;;-2.64;100.00
68889;BME280;55930;47.412;8.790;2022-12-18T15:42:12;95590.34;;;-2.63;100.00
68889;BME280;55930;47.412;8.790;2022-12-18T15:45:53;95594.72;;;-2.67;100.00
68889;BME280;55930;47.412;8.790;2022-12-18T15:49:16;95604.72;;;-2.70;100.00
68889;BME280;55930;47.412;8.790;2022-12-18T15:52:52;95603.09;;;-2.78;100.00
68889;BME280;55930;47.412;8.790;2022-12-18T15:56:16;95596.06;;;-2.77;100.00
68889;BME280;55930;47.412;8.790;2022-12-18T15:59:57;95598.09;;;-2.67;100.00
68889;BME280;55930;47.412;8.790;2022-12-18T16:03:37;95597.56;;;-2.76;100.00
68889;BME280;55930;47.412;8.790;2022-12-18T16:07:08;95594.03;;;-2.87;100.00
68889;BME280;55930;47.412;8.790;2022-12-18T16:10:32;95594.78;;;-2.87;100.00
68889;BME280;55930;47.412;8.790;2022-12-18T16:17:42;95609.22;;;-2.89;100.00
68889;BME280;55930;47.412;8.790;2022-12-18T16:21:10;95611.38;;;-2.72;100.00
68889;BME280;55930;47.412;8.790;2022-12-18T16:24:33;95607.84;;;-2.83;100.00
68889;BME280;55930;47.412;8.790;2022-12-18T16:27:54;95599.81;;;-2.75;100.00
68889;BME280;55930;47.412;8.790;2022-12-18T16:31:17;95616.16;;;-2.74;100.00
68889;BME280;55930;47.412;8.790;2022-12-18T16:34:41;95604.88;;;-3.04;100.00
68889;BME280;55930;47.412;8.790;2022-12-18T16:38:02;95597.19;;;-3.20;100.00
68889;BME280;55930;47.412;8.790;2022-12-18T16:41:25;95610.78;;;-2.85;100.00
68889;BME280;55930;47.412;8.790;2022-12-18T16:44:55;95607.81;;;-3.06;100.00
68889;BME280;55930;47.412;8.790;2022-12-18T16:48:15;95602.81;;;-2.95;100.00
68889;BME280;55930;47.412;8.790;2022-12-18T16:51:36;95609.09;;;-2.96;100.00
68889;BME280;55930;47.412;8.790;2022-12-18T16:54:56;95597.75;;;-2.88;100.00
68889;BME280;55930;47.412;8.790;2022-12-18T16:58:17;95588.28;;;-3.00;100.00
68889;BME280;55930;47.412;8.790;2022-12-18T17:01:37;95593.75;;;-3.05;100.00
68889;BME280;55930;47.412;8.790;2022-12-18T17:05:00;95589.13;;;-3.15;100.00
68889;BME280;55930;47.412;8.790;2022-12-18T17:08:21;95577.78;;;-3.07;100.00
68889;BME280;55930;47.412;8.790;2022-12-18T17:11:42;95583.16;;;-2.96;100.00
68889;BME280;55930;47.412;8.790;2022-12-18T17:15:03;95582.09;;;-2.92;100.00
68889;BME280;55930;47.412;8.790;2022-12-18T17:18:23;95575.47;;;-3.12;100.00
68889;BME280;55930;47.412;8.790;2022-12-18T17:21:52;95572.16;;;-3.51;100.00
68889;BME280;55930;47.412;8.790;2022-12-18T17:25:12;95584.78;;;-3.50;100.00
68889;BME280;55930;47.412;8.790;2022-12-18T17:28:33;95590.94;;;-3.38;100.00
68889;BME280;55930;47.412;8.790;2022-12-18T17:31:54;95589.78;;;-3.41;100.00
68889;BME280;55930;47.412;8.790;2022-12-18T17:35:14;95593.66;;;-3.51;100.00
68889;BME280;55930;47.412;8.790;2022-12-18T17:38:35;95594.41;;;-3.50;100.00
68889;BME280;55930;47.412;8.790;2022-12-18T17:41:56;95595.84;;;-3.33;100.00
68889;BME280;55930;47.412;8.790;2022-12-18T17:45:17;95606.78;;;-3.43;100.00
68889;BME280;55930;47.412;8.790;2022-12-18T17:48:40;95601.72;;;-3.36;100.00
68889;BME280;55930;47.412;8.790;2022-12-18T17:52:00;95583.69;;;-3.49;100.00
68889;BME280;55930;47.412;8.790;2022-12-18T17:55:21;95575.38;;;-3.38;100.00
68889;BME280;55930;47.412;8.790;2022-12-18T17:58:42;95568.47;;;-3.31;100.00
68889;BME280;55930;47.412;8.790;2022-12-18T18:02:03;95570.88;;;-3.41;100.00
68889;BME280;55930;47.412;8.790;2022-12-18T18:05:23;95569.97;;;-3.30;100.00
68889;BME280;55930;47.412;8.790;2022-12-18T18:08:43;95576.84;;;-3.18;100.00
68889;BME280;55930;47.412;8.790;2022-12-18T18:12:12;95576.72;;;-3.25;100.00
68889;BME280;55930;47.412;8.790;2022-12-18T18:16:09;95574.13;;;-3.25;100.00
68889;BME280;55930;47.412;8.790;2022-12-18T18:19:30;95576.59;;;-3.32;100.00
68889;BME280;55930;47.412;8.790;2022-12-18T18:22:51;95585.59;;;-3.26;100.00
68889;BME280;55930;47.412;8.790;2022-12-18T18:26:11;95586.34;;;-3.26;100.00
68889;BME280;55930;47.412;8.790;2022-12-18T18:29:32;95593.84;;;-3.21;100.00
68889;BME280;55930;47.412;8.790;2022-12-18T18:32:52;95600.59;;;-3.16;100.00
68889;BME280;55930;47.412;8.790;2022-12-18T18:36:13;95604.06;;;-3.09;100.00
68889;BME280;55930;47.412;8.790;2022-12-18T18:39:33;95589.63;;;-3.29;100.00
68889;BME280;55930;47.412;8.790;2022-12-18T18:42:55;95598.97;;;-3.24;100.00
68889;BME280;55930;47.412;8.790;2022-12-18T18:46:57;95603.19;;;-3.16;100.00
68889;BME280;55930;47.412;8.790;2022-12-18T18:50:20;95608.22;;;-3.46;100.00
68889;BME280;55930;47.412;8.790;2022-12-18T18:53:45;95608.53;;;-3.28;100.00
68889;BME280;55930;47.412;8.790;2022-12-18T18:57:25;95594.81;;;-3.29;100.00
68889;BME280;55930;47.412;8.790;2022-12-18T19:01:00;95602.13;;;-3.54;100.00
68889;BME280;55930;47.412;8.790;2022-12-18T19:04:21;95586.63;;;-3.31;100.00
68889;BME280;55930;47.412;8.790;2022-12-18T19:07:43;95579.41;;;-3.41;100.00
68889;BME280;55930;47.412;8.790;2022-12-18T19:11:07;95583.66;;;-3.52;100.00
68889;BME280;55930;47.412;8.790;2022-12-18T19:14:52;95579.59;;;-3.50;100.00
68889;BME280;55930;47.412;8.790;2022-12-18T19:18:13;95580.91;;;-3.40;100.00
68889;BME280;55930;47.412;8.790;2022-12-18T19:22:04;95569.44;;;-3.39;100.00
68889;BME280;55930;47.412;8.790;2022-12-18T19:25:36;95560.91;;;-3.39;100.00
68889;BME280;55930;47.412;8.790;2022-12-18T19:29:06;95564.91;;;-3.23;100.00
68889;BME280;55930;47.412;8.790;2022-12-18T19:32:26;95564.44;;;-3.28;100.00
68889;BME280;55930;47.412;8.790;2022-12-18T19:35:47;95549.84;;;-3.36;100.00
68889;BME280;55930;47.412;8.790;2022-12-18T19:39:13;95560.16;;;-3.40;100.00